Time;durP1;ratioP1;P1;durP2;ratioP2;P2;SDS_P1;SDS_P2;PMS_P1;PMS_P2;Temp;Humidity;BMP_temperature;BMP_pressure;BME280_temperature;BME280_humidity;BME280_pressure;Samples;Min_cycle;Max_cycle;Signal;HPM_P1;HPM_P2
2023/06/13 00:00:44;;;;;;;;;;;;;;;20.91;40.50;101315.81;5053976;28;1353;-76
2023/06/13 00:03:11;;;;;;;;;;;;;;;20.87;40.73;101325.94;5058312;28;1146;-77
2023/06/13 00:05:37;;;;;;;;;;;;;;;20.80;41.25;101317.06;5037589;28;1902;-76
2023/06/13 00:08:02;;;;;;;;;;;;;;;20.75;41.05;101315.97;5041459;28;1470;-76
2023/06/13 00:10:28;;;;;;;;;;;;;;;20.72;41.17;101311.91;5053705;28;1575;-76
2023/06/13 00:12:53;;;;;;;;;;;;;;;20.67;41.29;101315.06;5031314;28;2213;-76
2023/06/13 00:15:18;;;;;;;;;;;;;;;20.59;41.73;101317.78;5055735;28;1850;-75
2023/06/13 00:17:45;;;;;;;;;;;;;;;20.57;41.46;101319.75;5046032;28;1205;-76
2023/06/13 00:20:10;;;;;;;;;;;;;;;20.51;41.45;101320.47;5033529;28;1246;-76
2023/06/13 00:22:36;;;;;;;;;;;;;;;20.49;41.71;101322.50;5047791;28;1593;-75
2023/06/13 00:25:02;;;;;;;;;;;;;;;20.44;41.97;101314.25;5037577;28;2340;-75
2023/06/13 00:27:27;;;;;;;;;;;;;;;20.39;41.94;101327.97;5048240;28;1290;-76
2023/06/13 00:29:52;;;;;;;;;;;;;;;20.34;41.96;101318.94;5020846;28;1484;-75
2023/06/13 00:32:17;;;;;;;;;;;;;;;20.27;42.39;101318.03;5045736;28;1564;-75
2023/06/13 00:34:43;;;;;;;;;;;;;;;20.23;42.41;101322.00;5048572;28;1268;-75
2023/06/13 00:37:12;;;;;;;;;;;;;;;20.16;42.24;101325.34;5047569;28;1161;-76
2023/06/13 00:39:38;;;;;;;;;;;;;;;20.09;42.40;101320.97;5033973;28;1133;-77
2023/06/13 00:42:03;;;;;;;;;;;;;;;19.99;42.38;101315.09;5049215;28;1421;-75
2023/06/13 00:44:28;;;;;;;;;;;;;;;19.94;42.66;101312.16;5050753;28;1893;-75
2023/06/13 00:46:55;;;;;;;;;;;;;;;19.88;42.91;101313.69;5052289;28;1303;-75
2023/06/13 00:49:21;;;;;;;;;;;;;;;19.84;42.61;101315.00;5048425;28;1557;-75
2023/06/13 00:51:47;;;;;;;;;;;;;;;19.83;43.09;101323.91;5024048;28;1362;-76
2023/06/13 00:54:13;;;;;;;;;;;;;;;19.77;42.50;101328.06;5057349;28;1349;-76
2023/06/13 00:56:38;;;;;;;;;;;;;;;19.73;42.90;101320.69;5049427;28;1051;-75
2023/06/13 00:59:04;;;;;;;;;;;;;;;19.68;43.10;101323.03;5042299;28;1471;-75
2023/06/13 01:01:30;;;;;;;;;;;;;;;19.66;43.12;101322.34;5039515;28;1381;-76
2023/06/13 01:03:59;;;;;;;;;;;;;;;19.64;43.18;101322.53;5039011;28;1893;-76
2023/06/13 01:06:24;;;;;;;;;;;;;;;19.62;43.34;101320.09;5056343;28;1166;-75
2023/06/13 01:08:50;;;;;;;;;;;;;;;19.60;43.31;101322.06;5054146;28;1448;-76
2023/06/13 01:11:19;;;;;;;;;;;;;;;19.57;43.67;101311.84;5036607;28;1539;-76
2023/06/13 01:14:01;;;;;;;;;;;;;;;19.53;43.91;101315.81;5031683;28;1240;-76
2023/06/13 01:16:33;;;;;;;;;;;;;;;19.51;44.25;101302.03;5056004;28;1165;-76
2023/06/13 01:19:00;;;;;;;;;;;;;;;19.48;43.96;101306.78;5047772;28;1320;-76
2023/06/13 01:21:26;;;;;;;;;;;;;;;19.45;43.88;101313.22;5044125;28;1972;-76
2023/06/13 01:23:58;;;;;;;;;;;;;;;19.40;44.19;101310.28;5049839;28;1894;-76
2023/06/13 01:26:27;;;;;;;;;;;;;;;19.34;44.17;101305.72;5044885;28;1114;-76
2023/06/13 01:28:53;;;;;;;;;;;;;;;19.32;44.38;101312.94;5044350;28;1378;-76
2023/06/13 01:31:20;;;;;;;;;;;;;;;19.30;44.33;101310.47;5042846;28;939;-76
2023/06/13 01:33:46;;;;;;;;;;;;;;;19.28;44.86;101311.66;5048257;28;1578;-75
2023/06/13 01:36:12;;;;;;;;;;;;;;;19.26;44.67;101305.72;5052755;28;1271;-76
2023/06/13 01:38:37;;;;;;;;;;;;;;;19.25;44.75;101315.44;5035661;28;1378;-75
2023/06/13 01:41:03;;;;;;;;;;;;;;;19.22;44.83;101307.06;5035264;28;1390;-76
2023/06/13 01:43:28;;;;;;;;;;;;;;;19.16;44.86;101313.03;5032651;28;1557;-75
2023/06/13 01:45:57;;;;;;;;;;;;;;;19.12;45.13;101312.53;5050159;28;1906;-75
2023/06/13 01:48:43;;;;;;;;;;;;;;;19.08;45.03;101312.03;5034884;28;1218;-75
2023/06/13 01:51:18;;;;;;;;;;;;;;;19.04;45.32;101304.69;5047320;28;1481;-75
2023/06/13 01:53:48;;;;;;;;;;;;;;;19.01;45.70;101315.50;5038533;28;1612;-75
2023/06/13 01:56:19;;;;;;;;;;;;;;;18.97;45.67;101304.50;5052912;28;1944;-75
2023/06/13 01:58:49;;;;;;;;;;;;;;;18.94;45.60;101301.41;5034336;28;1515;-76
2023/06/13 02:01:16;;;;;;;;;;;;;;;18.87;45.78;101303.91;5056766;28;1105;-75
2023/06/13 02:03:41;;;;;;;;;;;;;;;18.84;46.07;101310.28;5042726;28;1890;-78
2023/06/13 02:06:06;;;;;;;;;;;;;;;18.82;46.15;101300.94;5048159;28;1377;-75
2023/06/13 02:08:32;;;;;;;;;;;;;;;18.79;46.28;101301.25;5030997;28;1247;-75
2023/06/13 02:10:57;;;;;;;;;;;;;;;18.74;46.26;101298.31;5058463;28;1408;-76
2023/06/13 02:13:23;;;;;;;;;;;;;;;18.72;46.25;101300.28;5032131;28;1370;-75
2023/06/13 02:15:48;;;;;;;;;;;;;;;18.71;46.39;101298.66;5049681;28;1379;-75
2023/06/13 02:18:15;;;;;;;;;;;;;;;18.69;46.39;101295.34;5054230;28;1017;-75
2023/06/13 02:20:40;;;;;;;;;;;;;;;18.65;46.57;101299.28;5043865;28;1180;-75
2023/06/13 02:23:05;;;;;;;;;;;;;;;18.63;46.48;101301.25;5059755;28;1084;-75
2023/06/13 02:25:31;;;;;;;;;;;;;;;18.58;46.59;101297.34;5045334;28;1914;-75
2023/06/13 02:27:56;;;;;;;;;;;;;;;18.52;46.82;101292.75;5057608;28;1829;-76
2023/06/13 02:30:22;;;;;;;;;;;;;;;18.46;46.72;101290.75;5050201;28;1751;-75
2023/06/13 02:32:47;;;;;;;;;;;;;;;18.40;47.04;101301.91;5034246;28;1438;-75
2023/06/13 02:35:13;;;;;;;;;;;;;;;18.39;46.94;101295.03;5027867;28;1514;-75
2023/06/13 02:37:38;;;;;;;;;;;;;;;18.38;47.16;101303.91;5047014;28;1458;-75
2023/06/13 02:40:05;;;;;;;;;;;;;;;18.38;46.91;101292.56;5034448;28;1159;-75
2023/06/13 02:42:30;;;;;;;;;;;;;;;18.36;47.22;101303.25;5032227;28;1154;-76
2023/06/13 02:44:55;;;;;;;;;;;;;;;18.33;47.23;101306.19;5047207;28;1898;-75
2023/06/13 02:47:21;;;;;;;;;;;;;;;18.29;47.45;101305.72;5048733;28;1355;-76
2023/06/13 02:49:46;;;;;;;;;;;;;;;18.25;47.74;101314.09;5046331;28;1165;-75
2023/06/13 02:52:11;;;;;;;;;;;;;;;18.21;47.58;101302.25;5054334;28;1153;-77
2023/06/13 02:54:36;;;;;;;;;;;;;;;18.16;47.69;101299.28;5028361;28;1383;-75
2023/06/13 02:57:02;;;;;;;;;;;;;;;18.12;47.82;101305.84;5052523;28;1018;-75
2023/06/13 02:59:27;;;;;;;;;;;;;;;18.09;47.95;101300.94;5051627;28;1086;-75
2023/06/13 03:01:52;;;;;;;;;;;;;;;18.07;47.84;101308.97;5035015;28;1281;-76
2023/06/13 03:04:18;;;;;;;;;;;;;;;18.02;47.82;101304.22;5050827;28;1914;-77
2023/06/13 03:06:44;;;;;;;;;;;;;;;18.00;47.97;101303.53;5049644;28;1308;-75
2023/06/13 03:09:10;;;;;;;;;;;;;;;17.96;47.97;101314.53;5057394;28;1176;-75
2023/06/13 03:11:36;;;;;;;;;;;;;;;17.94;47.93;101311.25;5036960;28;1575;-76
2023/06/13 03:14:01;;;;;;;;;;;;;;;17.92;48.03;101308.78;5053388;28;1470;-75
2023/06/13 03:16:28;;;;;;;;;;;;;;;17.91;48.10;101314.19;5054737;28;1019;-76
2023/06/13 03:18:53;;;;;;;;;;;;;;;17.87;48.08;101316.31;5055157;28;1010;-75
2023/06/13 03:21:18;;;;;;;;;;;;;;;17.86;48.38;101308.59;5058419;28;1354;-75
2023/06/13 03:23:44;;;;;;;;;;;;;;;17.82;48.44;101315.97;5054631;28;1550;-75
2023/06/13 03:26:09;;;;;;;;;;;;;;;17.79;48.21;101313.69;5051584;28;1905;-76
2023/06/13 03:28:34;;;;;;;;;;;;;;;17.78;48.44;101312.06;5057757;28;1181;-75
2023/06/13 03:31:00;;;;;;;;;;;;;;;17.74;48.49;101310.72;5037889;28;1341;-76
2023/06/13 03:33:25;;;;;;;;;;;;;;;17.69;48.25;101308.53;5053276;28;1555;-75
2023/06/13 03:35:52;;;;;;;;;;;;;;;17.65;48.71;101311.63;5062093;28;1261;-76
2023/06/13 03:38:17;;;;;;;;;;;;;;;17.64;48.97;101305.56;5048653;28;1093;-75
2023/06/13 03:40:43;;;;;;;;;;;;;;;17.63;48.96;101297.88;5047113;28;1355;-76
2023/06/13 03:43:08;;;;;;;;;;;;;;;17.63;48.93;101297.88;5049627;28;1236;-76
2023/06/13 03:45:33;;;;;;;;;;;;;;;17.60;48.93;101298.16;5031912;28;1898;-76
2023/06/13 03:47:58;;;;;;;;;;;;;;;17.56;49.21;101307.34;5047207;28;1189;-75
2023/06/13 03:50:24;;;;;;;;;;;;;;;17.50;49.11;101295.69;5050364;28;1184;-75
2023/06/13 03:52:49;;;;;;;;;;;;;;;17.48;49.46;101301.06;5049154;28;1497;-75
2023/06/13 03:55:14;;;;;;;;;;;;;;;17.47;49.41;101304.69;5053077;28;1082;-75
2023/06/13 03:57:40;;;;;;;;;;;;;;;17.48;49.52;101300.25;5043754;28;1055;-75
2023/06/13 04:00:05;;;;;;;;;;;;;;;17.46;49.65;101308.28;5046860;28;1038;-75
2023/06/13 04:02:31;;;;;;;;;;;;;;;17.44;49.39;101294.53;5034734;28;1534;-75
2023/06/13 04:04:56;;;;;;;;;;;;;;;17.47;49.53;101301.25;5050484;28;1898;-75
2023/06/13 04:07:22;;;;;;;;;;;;;;;17.48;49.09;101306.31;5031803;28;1209;-75
2023/06/13 04:09:47;;;;;;;;;;;;;;;17.47;49.79;101303.88;5051162;28;1171;-75
2023/06/13 04:12:13;;;;;;;;;;;;;;;17.45;49.60;101306.66;5045723;28;1410;-75
2023/06/13 04:14:38;;;;;;;;;;;;;;;17.44;49.31;101314.69;5034516;28;1576;-76
2023/06/13 04:17:03;;;;;;;;;;;;;;;17.43;49.77;101307.78;5014488;28;1921;-75
2023/06/13 04:19:29;;;;;;;;;;;;;;;17.44;49.56;101305.03;5049819;28;1371;-75
2023/06/13 04:21:55;;;;;;;;;;;;;;;17.44;49.51;101309.44;5047237;28;1265;-75
2023/06/13 04:24:21;;;;;;;;;;;;;;;17.47;49.46;101314.34;5043267;28;1890;-75
2023/06/13 04:26:46;;;;;;;;;;;;;;;17.49;49.52;101313.25;5036266;28;1196;-75
2023/06/13 04:29:13;;;;;;;;;;;;;;;17.50;49.65;101311.44;5037731;28;1192;-75
2023/06/13 04:31:39;;;;;;;;;;;;;;;17.50;49.64;101320.13;5040251;28;1277;-75
2023/06/13 04:34:05;;;;;;;;;;;;;;;17.52;49.55;101312.91;5033380;28;1416;-77
2023/06/13 04:36:32;;;;;;;;;;;;;;;17.55;49.64;101316.19;5044964;28;1608;-76
2023/06/13 04:39:04;;;;;;;;;;;;;;;17.59;49.74;101320.13;5042357;28;1310;-76
2023/06/13 04:41:33;;;;;;;;;;;;;;;17.59;49.60;101317.50;5041426;28;947;-76
2023/06/13 04:43:58;;;;;;;;;;;;;;;17.58;49.91;101315.88;5045602;28;1911;-75
2023/06/13 04:46:24;;;;;;;;;;;;;;;17.59;49.52;101320.13;5043771;28;1262;-75
2023/06/13 04:48:49;;;;;;;;;;;;;;;17.61;49.34;101315.56;5044107;28;1386;-75
2023/06/13 04:51:15;;;;;;;;;;;;;;;17.65;49.92;101322.13;5047333;28;1102;-77
2023/06/13 04:53:40;;;;;;;;;;;;;;;17.66;49.62;101323.75;5044192;28;1389;-76
2023/06/13 04:56:06;;;;;;;;;;;;;;;17.67;49.66;101323.63;5031476;28;1373;-76
2023/06/13 04:58:31;;;;;;;;;;;;;;;17.68;49.41;101327.06;5032642;28;1391;-77
2023/06/13 05:00:58;;;;;;;;;;;;;;;17.68;49.49;101329.69;5050894;28;1308;-77
2023/06/13 05:03:25;;;;;;;;;;;;;;;17.70;49.59;101330.34;5033669;28;1798;-78
2023/06/13 05:05:50;;;;;;;;;;;;;;;17.74;49.44;101336.94;5051144;28;1975;-78
2023/06/13 05:08:21;;;;;;;;;;;;;;;17.78;49.65;101338.28;5056681;28;1202;-78
2023/06/13 05:10:46;;;;;;;;;;;;;;;17.78;49.87;101338.28;5038566;28;1283;-77
2023/06/13 05:13:11;;;;;;;;;;;;;;;17.78;49.44;101338.28;5053052;28;1648;-77
2023/06/13 05:15:37;;;;;;;;;;;;;;;17.79;49.51;101339.91;5052371;28;1448;-77
2023/06/13 05:18:06;;;;;;;;;;;;;;;17.82;49.38;101339.59;5056963;28;1507;-79
2023/06/13 05:20:32;;;;;;;;;;;;;;;17.90;49.66;101344.06;5030522;28;1630;-79
2023/06/13 05:22:57;;;;;;;;;;;;;;;17.93;49.69;101343.72;5036613;28;1572;-79
2023/06/13 05:25:22;;;;;;;;;;;;;;;17.96;49.22;101341.59;5058567;28;1971;-78
2023/06/13 05:27:48;;;;;;;;;;;;;;;18.00;49.35;101353.41;5052840;28;1222;-77
2023/06/13 05:30:13;;;;;;;;;;;;;;;18.02;49.24;101348.84;5054667;28;1091;-78
2023/06/13 05:32:38;;;;;;;;;;;;;;;18.04;49.36;101354.72;5050727;28;1381;-78
2023/06/13 05:35:04;;;;;;;;;;;;;;;18.07;49.53;101342.28;5048541;28;1188;-78
2023/06/13 05:37:29;;;;;;;;;;;;;;;18.08;49.43;101338.69;5027413;28;1252;-78
2023/06/13 05:39:55;;;;;;;;;;;;;;;18.11;49.38;101346.22;5044926;28;1932;-78
2023/06/13 05:42:21;;;;;;;;;;;;;;;18.15;49.17;101334.41;5030548;28;1260;-78
2023/06/13 05:44:46;;;;;;;;;;;;;;;18.22;48.94;101341.47;5047399;28;1898;-78
2023/06/13 05:47:11;;;;;;;;;;;;;;;18.23;49.20;101342.28;5052588;28;1314;-78
2023/06/13 05:49:36;;;;;;;;;;;;;;;18.27;49.16;101339.19;5050524;28;1093;-79
2023/06/13 05:52:01;;;;;;;;;;;;;;;18.34;49.63;101344.59;5046777;28;1356;-78
2023/06/13 05:54:27;;;;;;;;;;;;;;;18.43;48.85;101342.81;5030233;28;1349;-78
2023/06/13 05:56:52;;;;;;;;;;;;;;;18.49;49.02;101342.16;5056658;28;1260;-78
2023/06/13 05:59:17;;;;;;;;;;;;;;;18.56;48.84;101343.94;5053133;28;1101;-78
2023/06/13 06:01:43;;;;;;;;;;;;;;;18.63;48.62;101345.91;5035001;28;1395;-78
2023/06/13 06:04:09;;;;;;;;;;;;;;;18.70;48.22;101344.31;5054171;28;1969;-78
2023/06/13 06:06:34;;;;;;;;;;;;;;;18.73;48.24;101334.28;5037731;28;1204;-78
2023/06/13 06:08:59;;;;;;;;;;;;;;;18.79;48.16;101348.56;5035958;28;1554;-78
2023/06/13 06:11:25;;;;;;;;;;;;;;;18.90;48.24;101350.84;5049135;28;1349;-78
2023/06/13 06:13:50;;;;;;;;;;;;;;;18.95;48.06;101351.19;5051611;28;1236;-77
2023/06/13 06:16:15;;;;;;;;;;;;;;;19.01;48.16;101347.88;5058297;28;1429;-77
2023/06/13 06:18:41;;;;;;;;;;;;;;;19.09;47.85;101350.47;5051492;28;1675;-76
2023/06/13 06:21:06;;;;;;;;;;;;;;;19.18;47.77;101353.91;5032864;28;1354;-75
2023/06/13 06:23:31;;;;;;;;;;;;;;;19.24;47.73;101347.16;5051850;28;1102;-75
2023/06/13 06:25:57;;;;;;;;;;;;;;;19.29;47.63;101344.84;5048163;28;1962;-76
2023/06/13 06:28:22;;;;;;;;;;;;;;;19.38;47.36;101346.44;5049868;28;985;-76
2023/06/13 06:30:47;;;;;;;;;;;;;;;19.45;47.29;101343.97;5050259;28;1376;-76
2023/06/13 06:33:12;;;;;;;;;;;;;;;19.56;46.79;101340.97;5044395;28;1506;-75
2023/06/13 06:35:37;;;;;;;;;;;;;;;19.63;46.91;101336.69;5050052;28;1493;-75
2023/06/13 06:38:03;;;;;;;;;;;;;;;19.70;47.11;101339.44;5057637;28;1508;-75
2023/06/13 06:40:28;;;;;;;;;;;;;;;19.79;46.44;101341.88;5046407;28;1318;-75
2023/06/13 06:42:53;;;;;;;;;;;;;;;19.89;46.21;101341.63;5051330;28;1472;-76
2023/06/13 06:45:18;;;;;;;;;;;;;;;19.92;46.51;101341.31;5044912;28;1964;-75
2023/06/13 06:47:43;;;;;;;;;;;;;;;20.02;46.22;101341.91;5046299;28;1360;-75
2023/06/13 06:50:09;;;;;;;;;;;;;;;20.10;46.12;101339.22;5063940;22;1567;-76
2023/06/13 06:52:35;;;;;;;;;;;;;;;20.24;45.93;101339.44;5069702;28;2238;-76
2023/06/13 06:55:00;;;;;;;;;;;;;;;20.31;46.14;101340.41;5063663;28;977;-76
2023/06/13 06:57:26;;;;;;;;;;;;;;;20.40;46.16;101340.13;5076117;28;1434;-77
2023/06/13 06:59:51;;;;;;;;;;;;;;;20.51;46.03;101346.84;5067122;28;1264;-76
2023/06/13 07:02:16;;;;;;;;;;;;;;;20.58;45.67;101344.31;5065665;28;1201;-76
2023/06/13 07:04:41;;;;;;;;;;;;;;;20.67;45.83;101346.69;5063348;28;1914;-75
2023/06/13 07:07:06;;;;;;;;;;;;;;;20.74;45.48;101340.72;5065008;28;1269;-76
2023/06/13 07:09:31;;;;;;;;;;;;;;;20.82;45.27;101332.75;5070308;28;1294;-75
2023/06/13 07:11:57;;;;;;;;;;;;;;;20.89;45.23;101338.91;5066935;28;1241;-76
2023/06/13 07:14:26;;;;;;;;;;;;;;;21.00;45.32;101341.13;5064205;28;1376;-76
2023/06/13 07:16:52;;;;;;;;;;;;;;;21.08;45.12;101338.38;5065326;28;1336;-76
2023/06/13 07:19:18;;;;;;;;;;;;;;;21.14;45.13;101347.38;5066577;28;1276;-77
2023/06/13 07:21:43;;;;;;;;;;;;;;;21.28;44.86;101337.84;5065066;28;1204;-78
2023/06/13 07:24:08;;;;;;;;;;;;;;;21.29;44.96;101344.75;5068789;28;1893;-76
2023/06/13 07:26:33;;;;;;;;;;;;;;;21.33;44.59;101352.13;5066154;28;1383;-76
2023/06/13 07:28:58;;;;;;;;;;;;;;;21.39;44.32;101350.59;5067137;28;1284;-75
2023/06/13 07:31:24;;;;;;;;;;;;;;;21.45;44.12;101345.41;5066201;28;1184;-76
2023/06/13 07:33:50;;;;;;;;;;;;;;;21.54;43.96;101359.31;5065442;28;1089;-76
2023/06/13 07:36:16;;;;;;;;;;;;;;;21.65;43.97;101356.19;5064482;28;1497;-76
2023/06/13 07:38:41;;;;;;;;;;;;;;;21.70;43.54;101353.81;5062258;28;1265;-76
2023/06/13 07:41:06;;;;;;;;;;;;;;;21.76;43.21;101356.72;5063359;28;1297;-76
2023/06/13 07:43:31;;;;;;;;;;;;;;;21.83;43.15;101357.63;5068117;28;1147;-76
2023/06/13 07:45:57;;;;;;;;;;;;;;;21.90;43.32;101355.88;5067676;28;1886;-76
2023/06/13 07:48:22;;;;;;;;;;;;;;;21.99;42.51;101352.13;5064199;28;1261;-75
2023/06/13 07:50:47;;;;;;;;;;;;;;;22.09;41.80;101346.53;5065970;28;1282;-75
2023/06/13 07:53:12;;;;;;;;;;;;;;;22.17;41.88;101355.16;5064937;28;1100;-76
2023/06/13 07:55:37;;;;;;;;;;;;;;;22.24;41.87;101344.66;5053475;28;1946;-76
2023/06/13 07:58:03;;;;;;;;;;;;;;;22.26;41.57;101343.47;5065326;28;1023;-76
2023/06/13 08:00:29;;;;;;;;;;;;;;;22.39;42.03;101344.59;5062812;28;1271;-78
2023/06/13 08:02:55;;;;;;;;;;;;;;;22.50;41.47;101344.09;5068439;28;1190;-76
2023/06/13 08:05:20;;;;;;;;;;;;;;;22.55;41.69;101336.41;5064621;28;1906;-76
2023/06/13 08:07:45;;;;;;;;;;;;;;;22.63;41.80;101338.91;5066360;28;1203;-76
2023/06/13 08:10:11;;;;;;;;;;;;;;;22.72;41.66;101337.75;5064445;28;1012;-78
2023/06/13 08:12:36;;;;;;;;;;;;;;;22.84;40.90;101342.50;5067994;28;1215;-77
2023/06/13 08:15:01;;;;;;;;;;;;;;;23.08;39.25;101339.44;5062245;28;1489;-76
2023/06/13 08:17:26;;;;;;;;;;;;;;;23.03;40.43;101344.50;5066513;28;1165;-76
2023/06/13 08:19:52;;;;;;;;;;;;;;;23.06;40.39;101344.13;5066839;28;1093;-76
2023/06/13 08:22:18;;;;;;;;;;;;;;;23.15;40.17;101342.94;5057766;28;1372;-78
2023/06/13 08:24:43;;;;;;;;;;;;;;;23.23;39.64;101345.44;5063061;28;1902;-76
2023/06/13 08:27:10;;;;;;;;;;;;;;;23.32;38.49;101354.00;5055776;28;1415;-77
2023/06/13 08:29:35;;;;;;;;;;;;;;;23.24;38.40;101341.78;5065837;28;1529;-76
2023/06/13 08:32:00;;;;;;;;;;;;;;;23.30;39.11;101346.28;5064249;28;1200;-76
2023/06/13 08:34:26;;;;;;;;;;;;;;;23.42;38.93;101351.00;5066758;28;1137;-76
2023/06/13 08:36:51;;;;;;;;;;;;;;;23.47;39.32;101341.47;5052560;28;1925;-76
2023/06/13 08:39:16;;;;;;;;;;;;;;;23.71;38.50;101337.50;5052053;28;1998;-75
2023/06/13 08:41:43;;;;;;;;;;;;;;;23.70;38.65;101341.16;5058780;28;1065;-76
2023/06/13 08:44:08;;;;;;;;;;;;;;;23.72;38.85;101344.44;5064872;28;1969;-76
2023/06/13 08:46:34;;;;;;;;;;;;;;;23.80;38.52;101346.91;5056056;28;1194;-76
2023/06/13 08:48:59;;;;;;;;;;;;;;;23.89;37.51;101333.47;5060772;28;1335;-76
2023/06/13 08:51:28;;;;;;;;;;;;;;;23.92;37.52;101338.38;5059984;28;1351;-76
2023/06/13 08:53:54;;;;;;;;;;;;;;;23.96;36.81;101339.59;5064827;28;1141;-76
2023/06/13 08:56:21;;;;;;;;;;;;;;;24.00;36.19;101335.53;5060289;28;1078;-76
2023/06/13 08:58:49;;;;;;;;;;;;;;;23.99;35.79;101344.50;5062493;28;1336;-76
2023/06/13 09:01:17;;;;;;;;;;;;;;;24.04;35.80;101342.06;5064912;28;1285;-76
2023/06/13 09:03:42;;;;;;;;;;;;;;;24.06;35.47;101340.84;5061931;28;1119;-76
2023/06/13 09:06:07;;;;;;;;;;;;;;;24.20;36.09;101338.19;5065939;28;1910;-76
2023/06/13 09:08:33;;;;;;;;;;;;;;;24.19;35.27;101345.34;5063445;28;1517;-76
2023/06/13 09:10:59;;;;;;;;;;;;;;;24.24;34.44;101337.59;5060196;28;1288;-75
2023/06/13 09:13:24;;;;;;;;;;;;;;;24.32;35.05;101334.75;5063859;28;1313;-75
2023/06/13 09:15:50;;;;;;;;;;;;;;;24.27;35.25;101325.78;5059025;28;1369;-76
2023/06/13 09:18:16;;;;;;;;;;;;;;;24.40;35.66;101330.31;5064010;28;1453;-78
2023/06/13 09:20:41;;;;;;;;;;;;;;;24.50;35.65;101325.41;5067334;28;1057;-76
2023/06/13 09:23:07;;;;;;;;;;;;;;;24.63;36.08;101333.34;5065530;28;1182;-76
2023/06/13 09:25:35;;;;;;;;;;;;;;;24.75;35.65;101329.06;5061910;28;1898;-76
2023/06/13 09:28:20;;;;;;;;;;;;;;;24.81;35.11;101328.22;5063172;28;1212;-77
2023/06/13 09:30:45;;;;;;;;;;;;;;;24.86;34.30;101325.75;5061562;28;1541;-76
2023/06/13 09:33:10;;;;;;;;;;;;;;;24.90;34.37;101321.69;5060495;28;1215;-76
2023/06/13 09:35:36;;;;;;;;;;;;;;;25.05;33.97;101333.88;5066181;28;1077;-76
2023/06/13 09:38:01;;;;;;;;;;;;;;;25.01;34.13;101327.38;5066183;28;1199;-76
2023/06/13 09:40:27;;;;;;;;;;;;;;;25.10;34.36;101324.31;5057835;28;1406;-76
2023/06/13 09:42:52;;;;;;;;;;;;;;;25.22;33.50;101324.47;5062700;28;1318;-75
2023/06/13 09:45:19;;;;;;;;;;;;;;;25.32;32.20;101332.81;5062992;28;1964;-76
2023/06/13 09:47:46;;;;;;;;;;;;;;;25.36;31.93;101331.38;5060686;28;1580;-77
2023/06/13 09:50:11;;;;;;;;;;;;;;;25.45;33.52;101334.59;5065037;28;1297;-76
2023/06/13 09:52:36;;;;;;;;;;;;;;;25.56;32.94;101325.16;5065405;28;1214;-78
2023/06/13 09:55:02;;;;;;;;;;;;;;;25.65;32.81;101323.88;5062963;28;1072;-75
2023/06/13 09:57:27;;;;;;;;;;;;;;;25.72;33.11;101329.97;5067712;28;1249;-76
2023/06/13 09:59:52;;;;;;;;;;;;;;;25.76;32.28;101320.59;5066082;28;1526;-76
2023/06/13 10:02:21;;;;;;;;;;;;;;;25.77;31.93;101319.56;5067795;28;1588;-76
2023/06/13 10:04:51;;;;;;;;;;;;;;;25.80;32.13;101324.44;5062194;28;1894;-76
2023/06/13 10:07:17;;;;;;;;;;;;;;;25.94;31.51;101323.31;5062688;28;1487;-76
2023/06/13 10:09:42;;;;;;;;;;;;;;;25.97;31.42;101315.94;5065131;28;1434;-76
2023/06/13 10:12:08;;;;;;;;;;;;;;;25.86;30.28;101320.94;5069292;28;1080;-76
2023/06/13 10:14:36;;;;;;;;;;;;;;;25.92;30.78;101320.09;5070544;28;1141;-76
2023/06/13 10:17:03;;;;;;;;;;;;;;;25.94;31.06;101323.31;5066103;28;1254;-76
2023/06/13 10:19:29;;;;;;;;;;;;;;;25.99;29.98;101319.22;5064625;28;1114;-76
2023/06/13 10:21:55;;;;;;;;;;;;;;;26.00;29.97;101315.53;5053743;28;1195;-76
2023/06/13 10:24:21;;;;;;;;;;;;;;;26.08;29.55;101318.72;5064163;28;1965;-76
2023/06/13 10:26:46;;;;;;;;;;;;;;;26.16;30.03;101315.00;5068554;28;1497;-76
2023/06/13 10:29:18;;;;;;;;;;;;;;;26.28;29.81;101315.94;5067201;28;1071;-76
2023/06/13 10:31:52;;;;;;;;;;;;;;;26.15;29.86;101313.34;5062892;28;1245;-76
2023/06/13 10:34:17;;;;;;;;;;;;;;;26.26;30.23;101312.66;5060042;28;1231;-76
2023/06/13 10:36:50;;;;;;;;;;;;;;;26.35;30.12;101307.88;5063688;28;1293;-76
2023/06/13 10:39:15;;;;;;;;;;;;;;;26.44;29.77;101312.75;5069325;28;926;-76
2023/06/13 10:41:45;;;;;;;;;;;;;;;26.45;29.89;101309.06;5067711;28;1095;-76
2023/06/13 10:44:15;;;;;;;;;;;;;;;26.57;29.77;101305.69;5060322;28;2012;-77
2023/06/13 10:46:41;;;;;;;;;;;;;;;26.69;29.23;101311.91;5066858;28;1332;-75
2023/06/13 10:49:12;;;;;;;;;;;;;;;26.68;29.69;101312.94;5065646;28;1682;-76
2023/06/13 10:51:37;;;;;;;;;;;;;;;26.62;29.21;101308.50;5068631;28;1326;-76
2023/06/13 10:54:03;;;;;;;;;;;;;;;26.59;28.65;101308.94;5061421;28;1095;-76
2023/06/13 10:56:32;;;;;;;;;;;;;;;26.60;29.58;101302.56;5061029;28;1560;-76
2023/06/13 10:59:04;;;;;;;;;;;;;;;26.76;30.33;101304.66;5065313;28;1264;-76
2023/06/13 11:01:30;;;;;;;;;;;;;;;26.79;29.45;101303.44;5062974;28;1243;-76
2023/06/13 11:04:12;;;;;;;;;;;;;;;26.88;30.27;101286.09;5067553;28;1392;-76
2023/06/13 11:06:39;;;;;;;;;;;;;;;27.07;29.68;101294.94;5063690;28;1269;-77
2023/06/13 11:09:16;;;;;;;;;;;;;;;27.21;29.79;101293.75;5069960;28;1046;-76
2023/06/13 11:11:46;;;;;;;;;;;;;;;27.22;28.41;101292.69;5064438;28;1163;-76
2023/06/13 11:14:11;;;;;;;;;;;;;;;27.25;28.31;101302.94;5066708;28;1072;-77
2023/06/13 11:16:37;;;;;;;;;;;;;;;27.10;27.53;101294.50;5062716;28;1570;-77
2023/06/13 11:19:11;;;;;;;;;;;;;;;27.05;28.11;101291.66;5066527;28;1227;-77
2023/06/13 11:21:42;;;;;;;;;;;;;;;27.15;28.29;101291.97;5064986;28;1230;-77
2023/06/13 11:24:07;;;;;;;;;;;;;;;27.16;27.79;101288.28;5068773;28;1893;-77
2023/06/13 11:26:34;;;;;;;;;;;;;;;27.32;28.07;101285.00;5063919;28;1253;-78
2023/06/13 11:29:00;;;;;;;;;;;;;;;27.34;27.69;101274.91;5066757;28;1081;-77
2023/06/13 11:31:26;;;;;;;;;;;;;;;27.47;27.88;101274.75;5065370;28;1279;-77
2023/06/13 11:33:55;;;;;;;;;;;;;;;27.49;27.07;101264.69;5063368;28;1378;-77
2023/06/13 11:36:24;;;;;;;;;;;;;;;27.52;27.81;101279.38;5060425;28;1241;-76
2023/06/13 11:39:10;;;;;;;;;;;;;;;27.58;28.22;101285.66;5068976;28;1120;-78
2023/06/13 11:41:36;;;;;;;;;;;;;;;27.68;28.05;101285.94;5064353;28;1114;-78
2023/06/13 11:44:01;;;;;;;;;;;;;;;27.74;27.50;101282.41;5059861;28;1368;-79
2023/06/13 11:46:26;;;;;;;;;;;;;;;27.78;27.80;101283.56;5061827;28;1975;-77
2023/06/13 11:48:57;;;;;;;;;;;;;;;27.87;26.78;101284.88;5064971;28;1576;-78
2023/06/13 11:51:26;;;;;;;;;;;;;;;27.84;26.19;101289.84;5081970;28;1270;-78
2023/06/13 11:53:53;;;;;;;;;;;;;;;27.88;26.85;101275.84;5056351;28;1185;-78
2023/06/13 11:56:19;;;;;;;;;;;;;;;27.94;27.45;101282.91;5063190;28;1217;-78
2023/06/13 11:58:46;;;;;;;;;;;;;;;28.04;26.62;101280.50;5063027;28;1340;-79
2023/06/13 12:01:15;;;;;;;;;;;;;;;28.03;27.15;101284.19;5058686;28;1351;-78
2023/06/13 12:03:41;;;;;;;;;;;;;;;27.95;25.89;101270.41;5064140;28;1524;-77
2023/06/13 12:06:07;;;;;;;;;;;;;;;27.86;26.53;101275.22;5067698;28;1965;-78
2023/06/13 12:08:35;;;;;;;;;;;;;;;27.88;26.41;101277.69;5064171;28;1142;-78
2023/06/13 12:11:05;;;;;;;;;;;;;;;27.87;26.34;101271.56;5058350;28;1504;-78
2023/06/13 12:13:30;;;;;;;;;;;;;;;27.82;26.20;101270.59;5065865;28;1518;-78
2023/06/13 12:15:56;;;;;;;;;;;;;;;27.81;26.17;101275.09;5063764;28;1764;-79
2023/06/13 12:18:21;;;;;;;;;;;;;;;27.85;26.86;101270.94;5063528;28;1206;-79
2023/06/13 12:20:48;;;;;;;;;;;;;;;27.95;27.18;101271.19;5063995;28;1331;-78
2023/06/13 12:23:13;;;;;;;;;;;;;;;28.09;26.78;101276.31;5064157;28;1115;-78
2023/06/13 12:25:40;;;;;;;;;;;;;;;27.90;25.79;101263.06;5061661;28;1951;-78
2023/06/13 12:28:06;;;;;;;;;;;;;;;27.90;26.58;101257.75;5062999;28;1108;-78
2023/06/13 12:30:39;;;;;;;;;;;;;;;27.96;26.80;101256.81;5055775;28;1247;-79
2023/06/13 12:33:09;;;;;;;;;;;;;;;28.07;26.23;101257.06;5056937;28;975;-78
2023/06/13 12:35:35;;;;;;;;;;;;;;;28.04;26.73;101248.50;5061802;28;996;-78
2023/06/13 12:38:00;;;;;;;;;;;;;;;28.12;26.07;101254.53;5041945;28;1475;-79
2023/06/13 12:40:32;;;;;;;;;;;;;;;27.99;26.13;101253.72;5050498;28;1257;-78
2023/06/13 12:43:00;;;;;;;;;;;;;;;27.94;26.27;101253.59;5037822;28;1154;-77